Time;durP1;ratioP1;P1;durP2;ratioP2;P2;SDS_P1;SDS_P2;PMS_P1;PMS_P2;Temp;Humidity;BMP_temperature;BMP_pressure;BME280_temperature;BME280_humidity;BME280_pressure;Samples;Min_cycle;Max_cycle;Signal;HPM_P1;HPM_P2
2022/08/28 00:02:03;;;;;;;19.10;7.28;;;13.40;99.90;;;;;;5094617;28;20055;-73
2022/08/28 00:04:31;;;;;;;;;;;13.40;99.90;;;;;;5094306;28;20130;-73
2022/08/28 00:07:01;;;;;;;18.00;7.35;;;13.40;99.90;;;;;;5092653;28;19920;-73
2022/08/28 00:09:28;;;;;;;13.48;7.35;;;13.30;99.90;;;;;;5093923;28;20055;-73
2022/08/28 00:11:56;;;;;;;15.45;6.95;;;13.30;99.90;;;;;;5094825;28;20048;-73
2022/08/28 00:14:24;;;;;;;14.50;7.07;;;13.30;99.90;;;;;;5092667;28;20055;-73
2022/08/28 00:16:53;;;;;;;11.85;7.13;;;13.30;99.90;;;;;;5093580;28;20499;-73
2022/08/28 00:19:22;;;;;;;14.65;7.10;;;13.30;99.90;;;;;;5093781;28;20048;-73
2022/08/28 00:21:50;;;;;;;14.32;6.97;;;13.30;99.90;;;;;;5093514;28;20047;-73
2022/08/28 00:24:18;;;;;;;14.48;6.93;;;13.30;99.90;;;;;;5094073;28;20060;-73
2022/08/28 00:29:32;;;;;;;13.15;6.65;;;13.20;99.90;;;;;;5093599;28;20044;-73
2022/08/28 00:31:59;;;;;;;21.88;6.65;;;13.20;99.90;;;;;;5093652;28;20376;-73
2022/08/28 00:34:27;;;;;;;19.75;6.45;;;13.20;99.90;;;;;;5092550;28;20040;-73
2022/08/28 00:37:00;;;;;;;14.52;7.07;;;13.10;99.90;;;;;;5094018;28;20044;-73
2022/08/28 00:39:28;;;;;;;;;;;13.10;99.90;;;;;;5094054;28;20040;-73
2022/08/28 00:41:56;;;;;;;14.60;6.60;;;13.10;99.90;;;;;;5093242;28;19920;-73
2022/08/28 00:44:27;;;;;;;17.20;6.55;;;13.00;99.90;;;;;;5094350;28;20059;-73
2022/08/28 00:46:58;;;;;;;14.52;6.45;;;13.00;99.90;;;;;;5092351;28;20060;-73
2022/08/28 00:49:30;;;;;;;12.57;6.57;;;12.90;99.90;;;;;;5077033;28;20047;-73
2022/08/28 00:52:07;;;;;;;14.70;6.15;;;12.90;99.90;;;;;;5093596;28;20063;-73
2022/08/28 00:54:47;;;;;;;15.02;6.63;;;12.90;99.90;;;;;;5076175;28;20372;-73
2022/08/28 00:57:29;;;;;;;17.17;5.80;;;12.90;99.90;;;;;;5093846;28;20044;-73
2022/08/28 00:59:57;;;;;;;13.70;6.03;;;12.90;99.90;;;;;;5092713;28;20302;-73
2022/08/28 01:02:26;;;;;;;13.13;5.80;;;12.80;99.90;;;;;;5093353;28;20037;-74
2022/08/28 01:04:54;;;;;;;15.25;7.18;;;12.80;99.90;;;;;;5093249;28;20048;-73
2022/08/28 01:07:22;;;;;;;13.50;6.20;;;12.80;99.90;;;;;;5075922;28;20380;-73
2022/08/28 01:09:53;;;;;;;13.10;6.20;;;12.80;99.90;;;;;;5093998;28;20059;-73
2022/08/28 01:12:27;;;;;;;12.85;5.97;;;12.80;99.90;;;;;;5093577;28;20059;-73
2022/08/28 01:14:58;;;;;;;11.70;6.05;;;12.80;99.90;;;;;;5093125;28;20044;-73
2022/08/28 01:17:30;;;;;;;9.60;5.72;;;12.70;99.90;;;;;;5093140;28;20043;-73
2022/08/28 01:20:04;;;;;;;13.23;5.40;;;12.70;99.90;;;;;;5093546;28;20315;-73
2022/08/28 01:22:37;;;;;;;16.27;6.25;;;12.70;99.90;;;;;;5094359;28;20044;-73
2022/08/28 01:25:10;;;;;;;13.70;5.38;;;12.70;99.90;;;;;;5096104;28;20044;-73
2022/08/28 01:27:40;;;;;;;13.80;5.30;;;12.70;99.90;;;;;;5096401;28;20040;-73
2022/08/28 01:30:15;;;;;;;12.40;5.07;;;12.60;99.90;;;;;;5097971;28;20056;-73
2022/08/28 01:32:46;;;;;;;10.05;4.68;;;12.60;99.90;;;;;;5097165;28;20055;-73
2022/08/28 01:35:17;;;;;;;11.25;4.68;;;12.60;99.90;;;;;;5095525;28;20503;-73
2022/08/28 01:37:45;;;;;;;12.90;4.72;;;12.60;99.90;;;;;;5096708;28;20058;-73
2022/08/28 01:40:19;;;;;;;10.60;4.53;;;12.60;99.90;;;;;;5095268;28;20037;-73
2022/08/28 01:42:46;;;;;;;11.55;4.78;;;12.50;99.90;;;;;;5096473;28;20459;-73
2022/08/28 01:45:17;;;;;;;11.73;4.70;;;12.50;99.90;;;;;;5096756;28;20059;-73
2022/08/28 01:47:45;;;;;;;11.75;4.65;;;12.50;99.90;;;;;;5095760;28;20048;-73
2022/08/28 01:50:16;;;;;;;11.60;4.40;;;12.50;99.90;;;;;;5096489;28;20044;-73
2022/08/28 01:52:44;;;;;;;13.70;4.63;;;12.50;99.90;;;;;;5096396;28;20052;-73
2022/08/28 01:55:12;;;;;;;8.77;4.50;;;12.50;99.90;;;;;;5095955;28;20044;-73
2022/08/28 01:57:49;;;;;;;8.35;4.38;;;12.40;99.90;;;;;;5097041;28;20040;-73
2022/08/28 02:00:17;;;;;;;13.88;5.00;;;12.40;99.90;;;;;;5096016;28;20051;-73
2022/08/28 02:02:47;;;;;;;;;;;12.30;99.90;;;;;;5096777;28;20063;-73
2022/08/28 02:05:14;;;;;;;13.15;4.60;;;12.30;99.90;;;;;;5096802;28;19924;-73
2022/08/28 02:07:42;;;;;;;11.75;4.63;;;12.20;99.90;;;;;;5095266;28;20460;-72
2022/08/28 02:10:10;;;;;;;13.52;5.32;;;12.20;99.90;;;;;;5096957;28;20055;-73
2022/08/28 02:12:38;;;;;;;10.10;4.40;;;12.20;99.90;;;;;;5096010;28;20464;-73
2022/08/28 02:15:06;;;;;;;11.73;4.88;;;12.10;99.90;;;;;;5094908;28;20353;-73
2022/08/28 02:17:34;;;;;;;11.85;4.90;;;12.10;99.90;;;;;;5096833;28;20048;-73
2022/08/28 02:20:03;;;;;;;13.18;4.88;;;12.10;99.90;;;;;;5095675;28;20047;-73
2022/08/28 02:22:31;;;;;;;11.50;4.70;;;12.00;99.90;;;;;;5095704;28;20040;-73
2022/08/28 02:24:58;;;;;;;10.77;5.10;;;12.00;99.90;;;;;;5095793;28;20048;-73
2022/08/28 02:27:26;;;;;;;16.30;4.65;;;12.00;99.90;;;;;;5095392;28;20055;-73
2022/08/28 02:29:54;;;;;;;11.55;4.55;;;12.00;99.90;;;;;;5095541;28;20490;-73
2022/08/28 02:32:22;;;;;;;9.98;4.38;;;12.00;99.90;;;;;;5096529;28;20448;-73
2022/08/28 02:34:49;;;;;;;13.20;4.20;;;12.00;99.90;;;;;;5095085;28;20345;-73
2022/08/28 02:37:17;;;;;;;11.55;4.40;;;12.00;99.90;;;;;;5095485;28;20379;-73
2022/08/28 02:39:45;;;;;;;11.30;3.90;;;11.90;99.90;;;;;;5094269;28;20040;-73
2022/08/28 02:42:14;;;;;;;12.38;3.95;;;11.90;99.90;;;;;;5096118;28;20383;-73
2022/08/28 02:44:42;;;;;;;11.00;3.95;;;11.90;99.90;;;;;;5078934;28;20063;-73
2022/08/28 02:47:10;;;;;;;10.63;4.38;;;11.90;99.90;;;;;;5093992;28;20424;-73
2022/08/28 02:49:37;;;;;;;11.32;4.25;;;11.90;99.90;;;;;;5095183;28;20375;-73
2022/08/28 02:52:05;;;;;;;10.93;3.58;;;11.90;99.90;;;;;;5096215;28;20059;-73
2022/08/28 02:54:34;;;;;;;13.13;4.28;;;11.90;99.90;;;;;;5094872;28;20071;-73
2022/08/28 02:57:02;;;;;;;7.05;3.35;;;11.90;99.90;;;;;;5095048;28;20051;-73
2022/08/28 02:59:30;;;;;;;10.07;4.00;;;11.90;99.90;;;;;;5095167;28;20364;-73
2022/08/28 03:01:59;;;;;;;6.70;3.55;;;11.90;99.90;;;;;;5093845;28;20063;-73
2022/08/28 03:04:26;;;;;;;12.40;3.50;;;11.90;99.90;;;;;;5096027;28;20058;-73
2022/08/28 03:06:54;;;;;;;8.38;3.47;;;11.90;99.90;;;;;;5093734;28;20059;-73
2022/08/28 03:09:22;;;;;;;9.15;3.10;;;11.80;99.90;;;;;;5094756;28;20063;-73
2022/08/28 03:11:52;;;;;;;6.90;3.13;;;11.80;99.90;;;;;;5095610;28;20494;-73
2022/08/28 03:14:21;;;;;;;11.70;3.40;;;11.80;99.90;;;;;;5093599;28;20474;-73
2022/08/28 03:16:49;;;;;;;8.50;3.22;;;11.80;99.90;;;;;;5095070;28;20051;-73
2022/08/28 03:19:16;;;;;;;10.25;3.55;;;11.80;99.90;;;;;;5094723;28;20463;-73
2022/08/28 03:21:44;;;;;;;7.25;3.30;;;11.70;99.90;;;;;;5093494;28;20047;-73
2022/08/28 03:24:12;;;;;;;7.80;3.42;;;11.70;99.90;;;;;;5078007;28;20054;-73
2022/08/28 03:26:42;;;;;;;6.55;3.05;;;11.70;99.90;;;;;;5093456;28;20040;-73
2022/08/28 03:29:10;;;;;;;;;;;11.70;99.90;;;;;;5095224;28;20384;-73
2022/08/28 03:31:37;;;;;;;8.05;3.33;;;11.90;99.90;;;;;;5095421;28;19938;-73
2022/08/28 03:34:05;;;;;;;12.95;3.22;;;11.90;99.90;;;;;;5094279;28;20525;-73
2022/08/28 03:36:33;;;;;;;9.73;3.30;;;11.90;99.90;;;;;;5094294;28;20518;-73
2022/08/28 03:39:04;;;;;;;7.78;2.92;;;11.90;99.90;;;;;;5095575;28;20051;-73
2022/08/28 03:41:33;;;;;;;10.77;2.80;;;11.90;99.90;;;;;;5093143;28;20043;-73
2022/08/28 03:44:01;;;;;;;10.02;3.05;;;12.00;99.90;;;;;;5095597;28;20482;-73
2022/08/28 03:46:33;;;;;;;9.43;3.05;;;12.00;99.90;;;;;;5076009;28;20048;-73
2022/08/28 03:49:02;;;;;;;9.95;3.00;;;12.00;99.90;;;;;;5077369;28;20056;-73
2022/08/28 03:51:32;;;;;;;10.82;2.85;;;12.10;99.90;;;;;;5095132;28;20055;-72
2022/08/28 03:54:01;;;;;;;10.15;2.80;;;12.20;99.90;;;;;;5093790;28;20047;-73
2022/08/28 03:56:29;;;;;;;8.00;2.70;;;12.30;99.90;;;;;;5094079;28;20047;-73
2022/08/28 03:59:01;;;;;;;6.72;2.53;;;12.40;99.90;;;;;;5094785;28;20047;-73
2022/08/28 04:01:29;;;;;;;7.53;2.40;;;12.40;99.90;;;;;;5093829;28;20040;-72
2022/08/28 04:03:57;;;;;;;10.88;2.60;;;12.50;99.90;;;;;;5093813;28;20073;-73
2022/08/28 04:06:25;;;;;;;6.85;2.50;;;12.50;99.90;;;;;;5093670;28;20044;-73
2022/08/28 04:08:52;;;;;;;8.40;3.00;;;12.60;99.90;;;;;;5093774;28;20048;-73
2022/08/28 04:11:21;;;;;;;10.48;2.83;;;12.60;99.90;;;;;;5093767;28;20063;-73
2022/08/28 04:13:48;;;;;;;;;;;12.60;99.90;;;;;;5094222;28;20043;-73
2022/08/28 04:16:17;;;;;;;7.05;2.70;;;12.60;99.90;;;;;;5094544;28;19924;-73
2022/08/28 04:18:47;;;;;;;8.88;3.10;;;12.60;99.90;;;;;;5094815;28;20051;-73
2022/08/28 04:21:18;;;;;;;7.85;3.00;;;12.50;99.90;;;;;;5093501;28;20051;-73
2022/08/28 04:23:46;;;;;;;8.50;3.05;;;12.50;99.90;;;;;;5094890;28;20071;-73
2022/08/28 04:26:18;;;;;;;8.40;2.80;;;12.50;99.90;;;;;;5076964;28;20375;-73
2022/08/28 04:28:46;;;;;;;7.00;2.88;;;12.50;99.90;;;;;;5094616;28;20048;-73
2022/08/28 04:31:15;;;;;;;8.20;3.10;;;12.40;99.90;;;;;;5093537;28;20070;-73
2022/08/28 04:33:43;;;;;;;9.45;2.88;;;12.40;99.90;;;;;;5092957;28;20364;-73
2022/08/28 04:36:13;;;;;;;10.32;3.20;;;12.40;99.90;;;;;;5094408;28;20040;-73
2022/08/28 04:38:42;;;;;;;5.78;3.00;;;12.40;99.90;;;;;;5077013;28;20051;-73
2022/08/28 04:41:13;;;;;;;7.93;2.85;;;12.40;99.90;;;;;;5093234;28;20040;-73
2022/08/28 04:43:41;;;;;;;7.20;3.03;;;12.40;99.90;;;;;;5076996;28;20043;-73
2022/08/28 04:46:12;;;;;;;9.20;3.30;;;12.50;99.90;;;;;;5076829;28;20044;-73
2022/08/28 04:48:41;;;;;;;12.88;2.95;;;12.50;99.90;;;;;;5093193;28;20054;-73
2022/08/28 04:51:11;;;;;;;8.65;2.80;;;12.50;99.90;;;;;;5093486;28;20491;-73
2022/08/28 04:53:39;;;;;;;5.95;2.75;;;12.50;99.90;;;;;;5093119;28;20055;-73
2022/08/28 04:56:09;;;;;;;;;;;12.50;99.90;;;;;;5093726;28;20372;-73
2022/08/28 04:58:37;;;;;;;5.03;2.50;;;12.50;99.90;;;;;;5076584;28;20359;-73
2022/08/28 05:01:12;;;;;;;9.57;2.55;;;12.40;99.90;;;;;;5095908;28;20360;-73
2022/08/28 05:03:40;;;;;;;8.32;2.90;;;12.40;99.90;;;;;;5098568;28;20471;-73
2022/08/28 05:06:08;;;;;;;7.20;3.08;;;12.20;99.90;;;;;;5098190;28;20044;-73
2022/08/28 05:08:35;;;;;;;10.30;3.00;;;12.20;99.90;;;;;;5096052;28;20056;-73
2022/08/28 05:11:21;;;;;;;6.85;2.80;;;12.10;99.90;;;;;;5096928;28;20048;-73
2022/08/28 05:14:06;;;;;;;8.30;2.75;;;12.00;99.90;;;;;;5096717;28;20059;-73
2022/08/28 05:16:49;;;;;;;9.40;3.25;;;12.00;99.90;;;;;;5080274;28;20063;-73
2022/08/28 05:19:18;;;;;;;10.25;3.30;;;12.00;99.90;;;;;;5080712;28;20471;-73
2022/08/28 05:21:46;;;;;;;9.40;3.55;;;12.80;99.90;;;;;;5095839;28;20048;-73
2022/08/28 05:24:14;;;;;;;6.47;3.00;;;11.90;99.90;;;;;;5097895;28;20040;-73
2022/08/28 05:26:42;;;;;;;11.13;3.40;;;11.90;99.90;;;;;;5096707;28;20495;-72
2022/08/28 05:29:15;;;;;;;6.30;3.20;;;11.90;99.90;;;;;;5096700;28;20048;-72
2022/08/28 05:31:44;;;;;;;14.57;3.80;;;11.90;99.90;;;;;;5096692;28;20044;-73
2022/08/28 05:34:14;;;;;;;12.02;3.33;;;11.90;99.90;;;;;;5079292;28;20043;-72
2022/08/28 05:36:41;;;;;;;9.93;3.00;;;11.90;99.90;;;;;;5096559;28;20471;-73
2022/08/28 05:39:11;;;;;;;9.57;3.17;;;11.90;99.90;;;;;;5096930;28;20044;-73
2022/08/28 05:41:41;;;;;;;8.02;3.10;;;11.90;99.90;;;;;;5095371;28;20479;-72
2022/08/28 05:44:10;;;;;;;10.80;3.55;;;11.90;99.90;;;;;;5097326;28;20367;-73
2022/08/28 05:46:40;;;;;;;10.55;3.67;;;11.90;99.90;;;;;;5096177;28;20266;-72
2022/08/28 05:49:08;;;;;;;8.90;3.17;;;11.90;99.90;;;;;;5097340;28;20371;-73
2022/08/28 05:51:40;;;;;;;6.85;2.90;;;12.00;99.90;;;;;;5097185;28;20356;-72
2022/08/28 05:54:08;;;;;;;8.90;3.00;;;12.00;99.90;;;;;;5095267;28;20063;-73
2022/08/28 05:56:39;;;;;;;7.35;3.50;;;12.00;99.90;;;;;;5096297;28;20051;-72
2022/08/28 05:59:09;;;;;;;9.98;3.42;;;12.10;99.90;;;;;;5096267;28;20063;-73
2022/08/28 06:01:43;;;;;;;9.85;3.50;;;12.10;99.90;;;;;;5096263;28;20048;-73
2022/08/28 06:04:23;;;;;;;16.48;2.90;;;12.10;99.90;;;;;;5096289;28;20058;-73
2022/08/28 06:06:51;;;;;;;11.18;3.40;;;12.10;99.90;;;;;;5078186;28;20063;-73
2022/08/28 06:09:23;;;;;;;7.75;3.20;;;12.20;99.90;;;;;;5097327;28;20486;-73
2022/08/28 06:11:58;;;;;;;12.68;3.47;;;12.20;99.90;;;;;;5095917;28;20051;-73
2022/08/28 06:14:26;;;;;;;9.70;3.53;;;12.30;99.90;;;;;;5095099;28;20394;-73
2022/08/28 06:16:54;;;;;;;;;;;12.30;99.90;;;;;;5097104;28;20040;-73
2022/08/28 06:19:23;;;;;;;;;;;12.40;99.90;;;;;;5096358;28;19919;-73
2022/08/28 06:21:55;;;;;;;9.82;3.40;;;12.40;99.90;;;;;;5094636;28;19942;-73
2022/08/28 06:24:23;;;;;;;10.70;3.33;;;12.40;99.90;;;;;;5097133;28;20378;-72
2022/08/28 06:26:51;;;;;;;8.63;3.35;;;12.50;99.90;;;;;;5077684;28;20057;-73
2022/08/28 06:29:21;;;;;;;10.63;3.45;;;12.60;99.90;;;;;;5082046;28;20045;-73
2022/08/28 06:31:56;;;;;;;8.13;3.47;;;12.70;99.90;;;;;;5094891;28;20048;-74
2022/08/28 06:34:25;;;;;;;7.78;3.47;;;12.80;99.90;;;;;;5077891;28;20040;-72
2022/08/28 06:36:53;;;;;;;10.45;3.13;;;12.90;99.90;;;;;;5095196;28;20053;-73
2022/08/28 06:39:21;;;;;;;10.68;3.67;;;13.00;99.90;;;;;;5095604;28;20379;-73
2022/08/28 06:41:49;;;;;;;9.00;3.55;;;13.10;99.90;;;;;;5077443;28;20041;-73
2022/08/28 06:44:19;;;;;;;11.85;3.75;;;13.10;99.90;;;;;;5078455;28;20058;-74
2022/08/28 06:46:49;;;;;;;10.45;3.60;;;13.20;99.90;;;;;;5061306;28;20494;-73
2022/08/28 06:49:17;;;;;;;12.10;3.58;;;13.40;99.90;;;;;;5095786;28;20058;-73
2022/08/28 06:51:45;;;;;;;;;;;13.60;99.90;;;;;;5096523;28;20056;-75
2022/08/28 06:54:14;;;;;;;13.30;3.53;;;13.80;99.90;;;;;;5095000;28;19943;-74
2022/08/28 06:56:49;;;;;;;16.70;3.28;;;14.00;99.90;;;;;;5095067;28;20051;-73
2022/08/28 06:59:17;;;;;;;11.23;2.92;;;14.10;99.90;;;;;;5094399;28;20036;-71
2022/08/28 07:01:45;;;;;;;11.35;3.67;;;14.30;99.90;;;;;;5094541;28;20046;-73
2022/08/28 07:04:16;;;;;;;11.00;3.42;;;14.40;99.90;;;;;;5095608;28;20460;-72
2022/08/28 07:06:44;;;;;;;11.50;3.38;;;14.50;99.90;;;;;;5094396;28;20048;-74
2022/08/28 07:09:14;;;;;;;10.13;3.28;;;14.60;99.90;;;;;;5077685;28;20059;-74
2022/08/28 07:11:47;;;;;;;12.57;3.03;;;14.80;99.90;;;;;;5095371;28;20055;-74
2022/08/28 07:14:14;;;;;;;12.23;3.45;;;14.90;99.90;;;;;;5093139;28;20055;-73
2022/08/28 07:16:43;;;;;;;12.07;3.20;;;15.00;99.90;;;;;;5095233;28;20040;-75
2022/08/28 07:19:11;;;;;;;12.40;3.50;;;15.00;99.90;;;;;;5094406;28;20419;-72
2022/08/28 07:21:42;;;;;;;12.15;3.83;;;15.10;99.90;;;;;;5093589;28;20040;-73
2022/08/28 07:24:12;;;;;;;13.93;3.20;;;15.20;99.90;;;;;;5095040;28;20055;-72
2022/08/28 07:26:40;;;;;;;16.85;3.78;;;15.20;99.90;;;;;;5093238;28;20044;-72
2022/08/28 07:29:08;;;;;;;13.00;3.60;;;15.20;99.90;;;;;;5093910;28;20056;-72
2022/08/28 07:31:43;;;;;;;14.20;3.72;;;15.30;99.90;;;;;;5094218;28;20047;-72
2022/08/28 07:34:12;;;;;;;12.88;3.83;;;15.40;99.90;;;;;;5093062;28;20052;-71
2022/08/28 07:36:41;;;;;;;14.77;3.88;;;15.40;99.90;;;;;;5077020;28;20403;-72
2022/08/28 07:39:11;;;;;;;16.23;3.95;;;15.40;99.90;;;;;;5095066;28;20494;-72
2022/08/28 07:41:41;;;;;;;17.20;3.85;;;15.50;99.90;;;;;;5092928;28;20040;-74
2022/08/28 07:47:00;;;;;;;13.38;3.75;;;15.60;99.90;;;;;;5092749;28;20471;-73
2022/08/28 07:49:27;;;;;;;11.40;3.40;;;15.60;99.90;;;;;;5094249;28;20051;-73
2022/08/28 07:51:55;;;;;;;13.45;3.55;;;15.70;99.90;;;;;;5094344;28;20052;-71
2022/08/28 07:54:23;;;;;;;15.38;3.60;;;15.70;99.90;;;;;;5093265;28;20048;-72
2022/08/28 07:56:51;;;;;;;12.15;3.58;;;15.70;99.90;;;;;;5094340;28;20044;-73
2022/08/28 07:59:19;;;;;;;11.98;3.80;;;15.80;99.90;;;;;;5094237;28;20047;-72
2022/08/28 08:01:50;;;;;;;13.85;3.10;;;15.80;99.90;;;;;;5092885;28;20452;-72
2022/08/28 08:04:20;;;;;;;12.77;3.42;;;15.80;99.90;;;;;;5094450;28;20067;-72
2022/08/28 08:06:48;;;;;;;13.88;3.47;;;15.90;99.90;;;;;;5093867;28;20055;-73
2022/08/28 08:09:22;;;;;;;13.40;3.35;;;15.90;99.90;;;;;;5078233;28;20051;-72
2022/08/28 08:11:50;;;;;;;14.45;3.30;;;15.90;99.90;;;;;;5094682;28;20055;-72
2022/08/28 08:14:17;;;;;;;10.43;2.63;;;16.20;99.90;;;;;;5075947;28;20055;-71
2022/08/28 08:16:46;;;;;;;11.02;2.40;;;15.60;99.90;;;;;;5093760;28;20036;-72
2022/08/28 08:19:15;;;;;;;13.15;2.70;;;16.10;99.90;;;;;;5093765;28;20387;-73
2022/08/28 08:21:46;;;;;;;19.13;2.53;;;16.20;99.90;;;;;;5092724;28;20392;-72
2022/08/28 08:24:19;;;;;;;16.35;2.63;;;16.30;99.90;;;;;;5077238;28;20055;-73
2022/08/28 08:26:48;;;;;;;7.78;2.30;;;16.40;99.90;;;;;;5093334;28;20048;-72
2022/08/28 08:29:30;;;;;;;15.30;2.50;;;16.50;99.90;;;;;;5076217;28;20052;-71
2022/08/28 08:32:05;;;;;;;12.07;2.45;;;16.60;99.90;;;;;;5073866;28;20358;-73
2022/08/28 08:34:37;;;;;;;12.90;2.38;;;16.70;99.90;;;;;;5076326;28;20048;-72
2022/08/28 08:37:06;;;;;;;12.73;2.30;;;17.40;99.90;;;;;;5077348;28;20048;-73
2022/08/28 08:39:35;;;;;;;8.75;2.05;;;16.90;99.90;;;;;;5077332;28;20040;-74
2022/08/28 08:42:06;;;;;;;10.05;2.20;;;17.10;99.90;;;;;;5059768;28;20484;-73
2022/08/28 08:44:44;;;;;;;14.80;1.92;;;17.20;99.90;;;;;;5078495;28;20052;-71
2022/08/28 08:47:33;;;;;;;14.57;2.28;;;17.30;99.90;;;;;;5077119;28;20044;-72
2022/08/28 08:50:08;;;;;;;14.25;2.17;;;17.40;99.90;;;;;;5077672;28;20051;-72
2022/08/28 08:52:37;;;;;;;15.90;2.35;;;17.50;99.90;;;;;;5077924;28;20052;-72
2022/08/28 08:55:22;;;;;;;11.65;2.03;;;17.60;99.90;;;;;;5076950;28;20045;-72
2022/08/28 08:58:00;;;;;;;10.63;2.20;;;17.70;99.90;;;;;;5076842;28;20056;-73
2022/08/28 09:00:30;;;;;;;10.77;2.30;;;17.90;99.90;;;;;;5075944;28;20495;-72
2022/08/28 09:03:02;;;;;;;13.32;2.05;;;18.00;99.90;;;;;;5060991;28;20044;-72
2022/08/28 09:05:54;;;;;;;15.30;1.90;;;18.20;99.90;;;;;;5077784;28;20055;-72
2022/08/28 09:08:46;;;;;;;12.63;2.10;;;18.40;99.90;;;;;;5059302;28;20051;-72
2022/08/28 09:11:20;;;;;;;8.10;1.80;;;18.70;99.90;;;;;;5077814;28;20045;-72
2022/08/28 09:14:00;;;;;;;8.82;2.00;;;18.80;99.90;;;;;;5076679;28;20388;-72
2022/08/28 09:16:36;;;;;;;13.05;2.08;;;19.10;99.90;;;;;;5076725;28;20067;-72
2022/08/28 09:19:08;;;;;;;11.35;2.00;;;19.30;99.90;;;;;;5077822;28;20044;-72
2022/08/28 09:21:40;;;;;;;6.65;1.90;;;19.30;99.90;;;;;;5076596;28;20044;-72
2022/08/28 09:24:29;;;;;;;11.52;1.83;;;19.50;99.90;;;;;;5043857;28;20059;-72
2022/08/28 09:27:07;;;;;;;9.25;1.70;;;19.50;99.90;;;;;;5058674;28;20052;-73
2022/08/28 09:29:45;;;;;;;9.85;1.80;;;19.60;99.90;;;;;;5077194;28;20044;-73
2022/08/28 09:32:25;;;;;;;8.35;1.60;;;19.70;99.90;;;;;;5060196;28;20075;-74
2022/08/28 09:35:23;;;;;;;8.48;1.60;;;19.70;99.00;;;;;;5058852;28;20048;-73
2022/08/28 09:37:51;;;;;;;12.23;1.98;;;19.80;98.60;;;;;;5043585;28;20053;-68
2022/08/28 09:43:25;;;;;;;6.00;1.63;;;19.80;99.60;;;;;;5075373;28;20052;-73
2022/08/28 09:43:27;;;;;;;12.45;1.92;;;19.80;99.00;;;;;;5076565;28;20055;-73
2022/08/28 09:46:15;;;;;;;11.85;2.08;;;19.80;98.80;;;;;;5076809;28;20040;-73
2022/08/28 09:48:46;;;;;;;11.88;1.80;;;19.80;98.40;;;;;;5076773;28;20400;-77
2022/08/28 09:51:28;;;;;;;10.70;1.75;;;20.00;99.20;;;;;;5059781;28;20507;-75
2022/08/28 09:54:04;;;;;;;11.48;1.67;;;20.30;97.30;;;;;;5074977;28;20472;-75
2022/08/28 09:56:34;;;;;;;6.53;1.70;;;20.50;97.30;;;;;;5093807;28;20063;-77
2022/08/28 09:59:10;;;;;;;10.48;1.65;;;20.70;96.80;;;;;;5079723;28;20044;-77
2022/08/28 10:01:50;;;;;;;9.88;2.00;;;20.70;96.40;;;;;;5078328;28;20043;-78
2022/08/28 10:04:39;;;;;;;9.50;1.88;;;20.60;96.50;;;;;;5096157;28;20372;-77
2022/08/28 10:07:36;;;;;;;6.53;1.80;;;20.60;96.10;;;;;;5078821;28;20365;-76
2022/08/28 10:10:32;;;;;;;7.50;1.85;;;20.60;95.60;;;;;;5096058;28;20472;-78
2022/08/28 10:13:10;;;;;;;7.93;1.63;;;21.30;95.90;;;;;;5094819;28;20048;-77
2022/08/28 10:15:37;;;;;;;;;;;20.70;95.90;;;;;;5096296;28;20043;-77
2022/08/28 10:18:34;;;;;;;9.75;1.77;;;20.70;95.00;;;;;;5096231;28;19924;-76
2022/08/28 10:21:05;;;;;;;10.15;1.90;;;20.80;95.40;;;;;;5094637;28;20059;-77
2022/08/28 10:23:48;;;;;;;8.60;1.95;;;20.80;95.50;;;;;;5079142;28;20071;-77
2022/08/28 10:26:48;;;;;;;8.73;1.58;;;20.90;95.40;;;;;;5096924;28;20048;-77
2022/08/28 10:29:51;;;;;;;10.50;1.88;;;21.40;94.60;;;;;;5074446;28;20052;-75
2022/08/28 10:32:50;;;;;;;6.55;1.70;;;20.90;94.50;;;;;;5052283;28;20082;-77
2022/08/28 10:35:24;;;;;;;9.88;1.90;;;21.10;94.20;;;;;;5094378;28;20388;-72
2022/08/28 10:38:25;;;;;;;12.80;2.10;;;21.10;94.40;;;;;;5096136;28;20040;-72
2022/08/28 10:41:19;;;;;;;12.30;1.90;;;21.20;93.30;;;;;;5085745;28;20044;-72
2022/08/28 10:43:51;;;;;;;10.55;2.08;;;21.30;93.10;;;;;;5060465;28;20082;-75
2022/08/28 10:46:23;;;;;;;9.75;1.85;;;21.40;93.70;;;;;;5090795;28;20048;-75
2022/08/28 10:49:02;;;;;;;11.95;1.80;;;21.60;93.40;;;;;;5095617;28;20047;-75
2022/08/28 10:51:43;;;;;;;9.50;1.88;;;21.70;92.20;;;;;;5095438;28;20052;-75
2022/08/28 10:54:19;;;;;;;10.25;1.83;;;21.80;92.70;;;;;;5093028;28;20048;-74
2022/08/28 10:57:02;;;;;;;10.13;1.77;;;21.80;92.00;;;;;;5095589;28;20044;-75
2022/08/28 10:59:32;;;;;;;9.85;1.98;;;21.80;91.90;;;;;;5075582;28;20048;-75
2022/08/28 11:02:15;;;;;;;6.97;1.58;;;21.70;92.20;;;;;;5075757;28;20056;-74
2022/08/28 11:04:46;;;;;;;7.68;1.80;;;22.00;93.60;;;;;;5074709;28;20048;-74
2022/08/28 11:07:41;;;;;;;7.47;1.70;;;21.80;90.70;;;;;;5073740;28;20045;-72
2022/08/28 11:10:23;;;;;;;9.10;1.63;;;21.80;90.70;;;;;;5075236;28;20460;-75
2022/08/28 11:12:51;;;;;;;7.00;1.88;;;21.80;90.60;;;;;;5074633;28;20048;-75
2022/08/28 11:15:28;;;;;;;8.65;1.67;;;21.80;90.70;;;;;;5074134;28;20053;-77
2022/08/28 11:18:16;;;;;;;8.98;1.67;;;21.80;90.50;;;;;;5075121;28;20045;-76
2022/08/28 11:21:07;;;;;;;4.90;1.60;;;21.80;90.00;;;;;;5074370;28;20111;-76
2022/08/28 11:24:09;;;;;;;6.32;1.83;;;21.90;89.40;;;;;;5074987;28;20044;-73
2022/08/28 11:26:56;;;;;;;9.80;1.60;;;22.00;89.40;;;;;;5073873;28;20491;-74
2022/08/28 11:29:55;;;;;;;12.50;1.90;;;22.00;87.40;;;;;;5089473;28;20044;-70
2022/08/28 11:32:32;;;;;;;6.72;1.73;;;22.10;87.00;;;;;;5095856;28;20479;-75
2022/08/28 11:35:25;;;;;;;10.98;1.80;;;22.10;89.10;;;;;;5062160;28;20053;-74
2022/08/28 11:37:53;;;;;;;5.47;1.55;;;22.20;89.50;;;;;;5057730;28;20053;-77
2022/08/28 11:40:27;;;;;;;8.55;1.80;;;22.30;88.60;;;;;;5056241;28;20383;-72
2022/08/28 11:43:13;;;;;;;8.52;1.83;;;22.30;88.00;;;;;;5073815;28;20488;-74
2022/08/28 11:45:45;;;;;;;5.95;1.52;;;22.30;86.90;;;;;;5056880;28;20056;-74
2022/08/28 11:48:33;;;;;;;7.10;1.70;;;22.30;88.00;;;;;;5082339;28;20059;-73
2022/08/28 11:51:23;;;;;;;8.13;1.90;;;22.40;85.60;;;;;;5095696;28;20048;-73
2022/08/28 11:53:54;;;;;;;8.77;1.70;;;22.40;87.00;;;;;;5075085;28;20632;-70
2022/08/28 11:56:30;;;;;;;10.52;1.80;;;22.60;87.10;;;;;;5076650;28;20056;-71
2022/08/28 11:59:15;;;;;;;10.02;2.10;;;22.60;86.80;;;;;;5094795;28;20048;-71
2022/08/28 12:01:43;;;;;;;8.38;1.50;;;22.80;86.90;;;;;;5092946;28;20337;-70
2022/08/28 12:04:17;;;;;;;6.15;1.55;;;22.80;86.00;;;;;;5094834;28;20364;-72
2022/08/28 12:06:48;;;;;;;4.53;1.35;;;22.90;84.30;;;;;;5093138;28;20051;-71
2022/08/28 12:09:25;;;;;;;3.92;1.38;;;22.90;84.10;;;;;;5094352;28;20052;-70
2022/08/28 12:11:54;;;;;;;7.78;1.50;;;23.00;83.30;;;;;;5055406;28;20071;-71
2022/08/28 12:14:24;;;;;;;6.65;1.58;;;23.00;81.80;;;;;;5052824;28;20068;-70
2022/08/28 12:16:58;;;;;;;11.57;1.85;;;23.10;81.00;;;;;;5054005;28;20072;-70
2022/08/28 12:19:32;;;;;;;6.65;1.63;;;23.20;82.10;;;;;;5020827;28;20049;-73
2022/08/28 12:22:10;;;;;;;9.38;1.50;;;23.20;83.60;;;;;;5052395;28;20049;-74
2022/08/28 12:25:01;;;;;;;8.35;1.90;;;23.30;82.30;;;;;;5037611;28;20055;-73
2022/08/28 12:27:37;;;;;;;9.52;1.70;;;23.40;81.30;;;;;;5036491;28;20052;-74
2022/08/28 12:30:05;;;;;;;8.43;1.50;;;23.50;81.90;;;;;;5054419;28;20049;-74
2022/08/28 12:32:47;;;;;;;;;;;23.50;83.90;;;;;;5055381;28;20061;-75
2022/08/28 12:35:22;;;;;;;7.30;1.40;;;23.50;81.50;;;;;;5052367;28;19921;-74
2022/08/28 12:37:53;;;;;;;7.43;1.65;;;23.60;80.40;;;;;;5053610;28;20388;-73
2022/08/28 12:40:28;;;;;;;7.13;1.40;;;23.60;81.50;;;;;;5052398;28;20373;-73
2022/08/28 12:42:58;;;;;;;5.22;1.42;;;23.80;80.10;;;;;;5054147;28;20045;-73
2022/08/28 12:45:28;;;;;;;4.93;1.20;;;23.90;79.10;;;;;;5054151;28;20045;-73
2022/08/28 12:48:00;;;;;;;5.70;1.33;;;23.80;81.00;;;;;;5035958;28;20049;-73
2022/08/28 12:50:32;;;;;;;5.40;1.40;;;23.90;79.50;;;;;;5054352;28;20368;-73
2022/08/28 12:53:02;;;;;;;6.95;1.50;;;24.00;80.10;;;;;;5052133;28;20057;-73
2022/08/28 12:55:31;;;;;;;6.75;1.65;;;24.00;80.10;;;;;;5053332;28;20049;-71
2022/08/28 12:57:59;;;;;;;7.68;1.60;;;24.10;79.60;;;;;;5033157;28;20053;-74
2022/08/28 13:00:32;;;;;;;7.75;1.45;;;24.20;79.20;;;;;;5030298;28;20388;-73
2022/08/28 13:03:00;;;;;;;3.92;1.30;;;24.20;77.20;;;;;;5052802;28;20056;-75
2022/08/28 13:05:36;;;;;;;7.95;1.60;;;24.20;78.50;;;;;;5053921;28;20518;-74
2022/08/28 13:08:10;;;;;;;4.63;1.38;;;24.20;78.80;;;;;;5052297;28;20052;-73
2022/08/28 13:10:40;;;;;;;6.57;1.20;;;24.20;77.70;;;;;;5076068;28;20055;-73
2022/08/28 13:13:17;;;;;;;5.18;1.33;;;24.20;77.00;;;;;;5059271;28;20404;-72
2022/08/28 13:15:45;;;;;;;7.85;1.40;;;24.30;77.20;;;;;;5093440;28;20040;-73
2022/08/28 13:18:34;;;;;;;6.85;1.50;;;24.30;76.70;;;;;;5081722;28;20052;-73
2022/08/28 13:21:17;;;;;;;6.70;1.42;;;24.20;75.80;;;;;;5057526;28;20052;-74